createdAt,value
2022-11-02T00:00:35.506Z,11.20
2022-11-02T00:03:03.257Z,11.20
2022-11-02T00:05:31.277Z,11.20
2022-11-02T00:07:58.363Z,11.10
2022-11-02T00:10:25.776Z,11.10
2022-11-02T00:12:53.550Z,11.00
2022-11-02T00:15:20.634Z,11.10
2022-11-02T00:17:51.038Z,11.10
2022-11-02T00:20:19.690Z,11.10
2022-11-02T00:22:50.561Z,11.10
2022-11-02T00:25:20.365Z,11.10
2022-11-02T00:27:47.362Z,11.00
2022-11-02T00:30:14.585Z,11.00
2022-11-02T00:32:41.731Z,11.10
2022-11-02T00:35:10.336Z,11.10
2022-11-02T00:37:37.643Z,11.10
2022-11-02T00:40:05.873Z,11.10
2022-11-02T00:42:32.912Z,11.10
2022-11-02T00:45:18.627Z,11.10
2022-11-02T00:48:04.144Z,11.10
2022-11-02T00:50:51.659Z,11.00
2022-11-02T00:53:39.027Z,11.10
2022-11-02T00:59:32.739Z,11.00
2022-11-02T01:01:59.811Z,11.10
2022-11-02T01:07:16.077Z,11.00
2022-11-02T01:09:44.449Z,11.00
2022-11-02T01:12:11.502Z,11.00
2022-11-02T01:14:38.620Z,11.00
2022-11-02T01:17:05.617Z,11.10
2022-11-02T01:19:33.145Z,11.20
2022-11-02T01:22:00.351Z,11.20
2022-11-02T01:24:27.374Z,11.20
2022-11-02T01:26:58.011Z,11.20
2022-11-02T01:29:25.023Z,11.10
2022-11-02T01:31:53.825Z,11.10
2022-11-02T01:34:21.675Z,11.10
2022-11-02T01:36:48.849Z,11.00
2022-11-02T01:39:16.195Z,11.00
2022-11-02T01:41:43.769Z,11.00
2022-11-02T01:44:31.868Z,11.00
2022-11-02T01:47:26.527Z,11.00
2022-11-02T01:50:00.896Z,10.90
2022-11-02T01:52:38.900Z,10.90
2022-11-02T01:55:19.528Z,10.90
2022-11-02T01:57:53.822Z,10.80
2022-11-02T02:00:20.848Z,10.70
2022-11-02T02:03:10.540Z,10.70
2022-11-02T02:05:48.032Z,10.60
2022-11-02T02:08:18.243Z,10.50
2022-11-02T02:10:45.220Z,10.30
2022-11-02T02:13:13.306Z,10.20
2022-11-02T02:16:08.332Z,10.20
2022-11-02T02:18:49.337Z,10.20
2022-11-02T02:21:57.513Z,10.30
2022-11-02T02:25:00.780Z,10.20
2022-11-02T02:28:05.721Z,10.20
2022-11-02T02:30:43.779Z,10.20
2022-11-02T02:33:23.580Z,10.10
2022-11-02T02:36:03.318Z,10.10
2022-11-02T02:38:42.055Z,10.20
2022-11-02T02:41:39.966Z,10.20
2022-11-02T02:44:14.993Z,10.20
2022-11-02T02:46:56.098Z,10.20
2022-11-02T02:49:36.911Z,10.20
2022-11-02T02:52:05.272Z,10.20
2022-11-02T02:54:38.066Z,10.30
2022-11-02T02:57:10.897Z,10.30
2022-11-02T02:59:48.943Z,10.20
2022-11-02T03:02:27.503Z,10.20
2022-11-02T03:04:54.653Z,10.20
2022-11-02T03:07:31.115Z,10.20
2022-11-02T03:10:15.403Z,10.20
2022-11-02T03:12:56.596Z,10.20
2022-11-02T03:15:59.782Z,10.20
2022-11-02T03:18:50.276Z,10.20
2022-11-02T03:21:26.822Z,10.20
2022-11-02T03:24:06.122Z,10.30
2022-11-02T03:26:57.701Z,10.30
2022-11-02T03:29:39.989Z,10.40
2022-11-02T03:32:15.828Z,10.40
2022-11-02T03:34:52.169Z,10.50
2022-11-02T03:37:19.686Z,10.60
2022-11-02T03:40:06.541Z,10.70
2022-11-02T03:42:36.480Z,10.80
2022-11-02T03:45:11.815Z,10.80
2022-11-02T03:47:39.599Z,10.80
2022-11-02T03:50:09.413Z,10.90
2022-11-02T03:52:40.152Z,10.90
2022-11-02T03:55:35.272Z,11.00
2022-11-02T03:58:02.471Z,10.90
2022-11-02T04:00:37.068Z,10.90
2022-11-02T04:03:07.622Z,10.90
2022-11-02T04:05:36.647Z,10.90
2022-11-02T04:08:23.267Z,10.80
2022-11-02T04:11:10.950Z,10.80
2022-11-02T04:13:56.739Z,10.80
2022-11-02T04:16:26.712Z,10.90
2022-11-02T04:19:14.364Z,10.90
2022-11-02T04:22:01.818Z,11.00
2022-11-02T04:24:47.069Z,11.00
2022-11-02T04:27:18.102Z,11.00
2022-11-02T04:29:48.012Z,11.10
2022-11-02T04:32:15.057Z,11.00
2022-11-02T04:34:42.037Z,10.90
2022-11-02T04:40:00.865Z,10.70
2022-11-02T04:42:27.859Z,10.70
2022-11-02T04:44:54.823Z,10.70
2022-11-02T04:47:21.791Z,10.70
2022-11-02T04:49:49.253Z,10.80
2022-11-02T04:52:16.223Z,10.80
2022-11-02T04:54:43.375Z,10.90
2022-11-02T04:57:10.363Z,10.90
2022-11-02T04:59:37.346Z,10.90
2022-11-02T05:02:04.475Z,10.90
2022-11-02T05:04:31.570Z,11.00
2022-11-02T05:07:01.458Z,11.00
2022-11-02T05:09:28.919Z,11.00
2022-11-02T05:11:55.896Z,11.10
2022-11-02T05:14:23.455Z,11.20
2022-11-02T05:16:50.460Z,11.20
2022-11-02T05:19:17.447Z,11.20
2022-11-02T05:21:45.691Z,11.30
2022-11-02T05:24:12.643Z,11.30
2022-11-02T05:26:39.706Z,11.30
2022-11-02T05:29:07.937Z,11.40
2022-11-02T05:31:34.934Z,11.40
2022-11-02T05:34:01.913Z,11.40
2022-11-02T05:36:28.881Z,11.30
2022-11-02T05:38:56.317Z,11.30
2022-11-02T05:41:23.981Z,11.30
2022-11-02T05:43:50.963Z,11.30
2022-11-02T05:46:19.063Z,11.30
2022-11-02T05:48:46.135Z,11.40
2022-11-02T05:51:13.226Z,11.40
2022-11-02T05:53:41.453Z,11.50
2022-11-02T05:56:10.257Z,11.60
2022-11-02T05:58:37.471Z,11.60
2022-11-02T06:01:07.210Z,11.60
2022-11-02T06:03:34.919Z,11.70
2022-11-02T06:06:10.661Z,11.80
2022-11-02T06:08:39.311Z,11.90
2022-11-02T06:11:08.135Z,11.90
2022-11-02T06:13:36.119Z,11.90
2022-11-02T06:16:05.383Z,12.00
2022-11-02T06:18:32.698Z,12.00
2022-11-02T06:21:00.776Z,12.00
2022-11-02T06:23:28.792Z,12.00
2022-11-02T06:25:58.460Z,12.10
2022-11-02T06:28:25.990Z,12.10
2022-11-02T06:30:53.023Z,12.10
2022-11-02T06:33:20.704Z,12.10
2022-11-02T06:35:49.656Z,12.10
2022-11-02T06:38:17.479Z,12.10
2022-11-02T06:40:53.163Z,12.10
2022-11-02T06:43:20.633Z,12.10
2022-11-02T06:45:47.894Z,12.10
2022-11-02T06:48:15.340Z,12.00
2022-11-02T06:50:42.594Z,12.00
2022-11-02T06:53:09.587Z,12.10
2022-11-02T06:55:36.620Z,12.20
2022-11-02T06:58:03.937Z,12.20
2022-11-02T07:00:32.769Z,12.30
2022-11-02T07:03:02.045Z,12.40
2022-11-02T07:05:29.711Z,12.50
2022-11-02T07:07:56.915Z,12.70
2022-11-02T07:10:24.415Z,12.80
2022-11-02T07:12:55.548Z,12.80
2022-11-02T07:15:24.509Z,12.90
2022-11-02T07:17:52.037Z,13.00
2022-11-02T07:20:19.371Z,13.00
2022-11-02T07:22:57.253Z,13.00
2022-11-02T07:25:25.028Z,13.00
2022-11-02T07:27:52.028Z,13.00
2022-11-02T07:30:19.418Z,13.00
2022-11-02T07:32:47.134Z,13.20
2022-11-02T07:35:16.036Z,13.40
2022-11-02T07:37:43.070Z,13.40
2022-11-02T07:40:12.391Z,13.60
2022-11-02T07:42:48.748Z,13.70
2022-11-02T07:45:15.787Z,13.90
2022-11-02T07:47:46.511Z,14.20
2022-11-02T07:50:14.916Z,14.20
2022-11-02T07:52:45.876Z,14.30
2022-11-02T07:55:14.343Z,14.40
2022-11-02T07:57:41.386Z,14.40
2022-11-02T08:00:08.942Z,14.40
2022-11-02T08:02:36.144Z,14.30
2022-11-02T08:05:03.485Z,14.50
2022-11-02T08:07:30.513Z,14.50
2022-11-02T08:09:57.469Z,14.70
2022-11-02T08:12:25.110Z,14.90
2022-11-02T08:14:52.105Z,15.10
2022-11-02T08:17:19.102Z,15.20
2022-11-02T08:19:46.055Z,15.40
2022-11-02T08:22:13.029Z,15.20
2022-11-02T08:24:40.113Z,15.30
2022-11-02T08:27:07.082Z,15.50
2022-11-02T08:29:35.385Z,15.60
2022-11-02T08:32:02.576Z,15.80
2022-11-02T08:34:29.539Z,15.80
2022-11-02T08:36:56.557Z,15.80
2022-11-02T08:39:23.537Z,16.00
2022-11-02T08:41:50.544Z,16.10
2022-11-02T08:44:17.704Z,16.20
2022-11-02T08:46:44.712Z,16.40
2022-11-02T08:49:11.778Z,16.40
2022-11-02T08:51:38.791Z,16.40
2022-11-02T08:54:05.837Z,16.30
2022-11-02T08:56:32.895Z,16.30
2022-11-02T08:58:59.883Z,16.20
2022-11-02T09:01:26.918Z,16.20
2022-11-02T09:03:53.977Z,16.30
2022-11-02T09:06:21.097Z,16.40
2022-11-02T09:08:48.284Z,16.50
2022-11-02T09:11:15.388Z,16.60
2022-11-02T09:13:42.509Z,16.70
2022-11-02T09:16:09.593Z,16.80
2022-11-02T09:18:37.467Z,16.80
2022-11-02T09:21:05.253Z,16.90
2022-11-02T09:23:32.549Z,17.10
2022-11-02T09:26:00.436Z,17.00
2022-11-02T09:28:27.618Z,17.00
2022-11-02T09:30:54.642Z,17.30
2022-11-02T09:33:21.750Z,17.40
2022-11-02T09:35:49.673Z,17.60
2022-11-02T09:38:20.577Z,17.80
2022-11-02T09:41:02.639Z,17.90
2022-11-02T09:43:55.761Z,17.80
2022-11-02T09:46:28.030Z,17.80
2022-11-02T09:49:19.706Z,17.90
2022-11-02T09:51:59.198Z,18.00
2022-11-02T09:54:41.443Z,18.10
2022-11-02T09:57:16.855Z,18.20
2022-11-02T09:59:43.888Z,18.40
2022-11-02T10:02:29.758Z,18.40
2022-11-02T10:05:37.938Z,18.40
2022-11-02T10:08:23.950Z,18.70
2022-11-02T10:11:28.242Z,18.90
2022-11-02T10:14:15.198Z,19.20
2022-11-02T10:17:12.632Z,19.60
2022-11-02T10:19:44.680Z,19.70
2022-11-02T10:22:15.350Z,20.00
2022-11-02T10:24:44.820Z,20.20
2022-11-02T10:27:26.560Z,20.40
2022-11-02T10:30:05.736Z,20.60
2022-11-02T10:32:35.002Z,20.80
2022-11-02T10:35:30.022Z,21.10
2022-11-02T10:37:57.402Z,21.00
2022-11-02T10:40:27.400Z,21.30
2022-11-02T10:43:15.925Z,21.40
2022-11-02T10:46:00.523Z,21.60
2022-11-02T10:49:20.891Z,21.30
2022-11-02T10:51:48.024Z,21.60
2022-11-02T10:54:19.630Z,21.90
2022-11-02T10:56:51.248Z,21.90
2022-11-02T10:59:20.548Z,21.90
2022-11-02T11:01:51.645Z,22.20
2022-11-02T11:04:22.983Z,22.40
2022-11-02T11:06:50.973Z,22.30
2022-11-02T11:09:28.938Z,22.20
2022-11-02T11:12:02.312Z,22.10
2022-11-02T11:20:25.756Z,21.80
2022-11-02T11:23:15.868Z,21.50
2022-11-02T11:25:43.537Z,21.50
2022-11-02T11:28:42.606Z,21.50
2022-11-02T11:31:17.133Z,21.80
2022-11-02T11:33:49.867Z,22.20
2022-11-02T11:36:33.157Z,22.20
2022-11-02T11:39:26.194Z,22.40
2022-11-02T11:41:53.410Z,22.40
2022-11-02T11:44:21.833Z,22.80
2022-11-02T11:46:52.223Z,22.90
2022-11-02T11:52:29.895Z,23.10
2022-11-02T11:55:01.052Z,23.10
2022-11-02T12:00:26.857Z,23.00
2022-11-02T12:03:12.043Z,23.30
2022-11-02T12:05:57.493Z,23.30
2022-11-02T12:08:24.465Z,23.40
2022-11-02T12:11:19.519Z,23.50
2022-11-02T12:14:10.883Z,23.50
2022-11-02T12:16:44.404Z,23.50
2022-11-02T12:19:33.916Z,23.50
2022-11-02T12:22:18.061Z,23.50
2022-11-02T12:25:03.161Z,23.50
2022-11-02T12:27:57.260Z,23.60
2022-11-02T12:30:46.382Z,23.30
2022-11-02T12:33:43.192Z,23.10
2022-11-02T12:36:26.204Z,23.20
2022-11-02T12:39:05.522Z,22.90
2022-11-02T12:41:40.537Z,22.80
2022-11-02T12:44:27.327Z,22.60
2022-11-02T12:47:07.161Z,22.60
2022-11-02T12:49:37.069Z,22.80
2022-11-02T12:52:28.510Z,22.60
2022-11-02T12:55:01.999Z,22.40
2022-11-02T12:57:35.233Z,22.30
2022-11-02T13:00:07.153Z,22.40
2022-11-02T13:02:58.134Z,22.20
2022-11-02T13:05:34.757Z,22.10
2022-11-02T13:08:06.880Z,22.20
2022-11-02T13:10:40.874Z,22.20
2022-11-02T13:13:14.690Z,22.10
2022-11-02T13:15:44.737Z,22.10
2022-11-02T13:18:36.224Z,22.00
2022-11-02T13:21:05.201Z,22.00
2022-11-02T13:23:37.837Z,21.90
2022-11-02T13:26:12.537Z,21.90
2022-11-02T13:28:55.057Z,21.90
2022-11-02T13:31:42.868Z,22.00
2022-11-02T13:34:16.456Z,22.00
2022-11-02T13:36:45.040Z,22.00
2022-11-02T13:39:21.939Z,22.00
2022-11-02T13:42:04.012Z,22.00
2022-11-02T13:44:49.281Z,22.00
2022-11-02T13:47:35.744Z,22.00
2022-11-02T13:50:05.051Z,21.90
2022-11-02T13:52:45.972Z,21.80
2022-11-02T13:55:45.581Z,21.60
2022-11-02T13:58:27.250Z,21.60
2022-11-02T14:00:59.532Z,21.40
2022-11-02T14:03:46.265Z,21.30
2022-11-02T14:06:15.788Z,21.30
2022-11-02T14:08:57.303Z,21.30
2022-11-02T14:11:41.992Z,21.20
2022-11-02T14:14:12.128Z,21.30
2022-11-02T14:16:51.586Z,21.20
2022-11-02T14:19:20.294Z,21.10
2022-11-02T14:22:00.049Z,21.10
2022-11-02T14:24:32.905Z,21.00
2022-11-02T14:27:22.355Z,21.00
2022-11-02T14:29:54.973Z,20.90
2022-11-02T14:32:22.643Z,20.80
2022-11-02T14:34:52.638Z,20.70
2022-11-02T14:37:39.246Z,20.60
2022-11-02T14:40:30.613Z,20.60
2022-11-02T14:43:43.627Z,20.50
2022-11-02T14:46:44.466Z,20.40
2022-11-02T14:49:47.236Z,20.30
2022-11-02T14:52:14.202Z,20.10
2022-11-02T14:54:53.988Z,20.00
2022-11-02T14:57:27.667Z,19.90
2022-11-02T14:59:58.029Z,19.70
2022-11-02T15:02:45.223Z,19.70
2022-11-02T15:05:21.691Z,19.50
2022-11-02T15:07:54.422Z,19.40
2022-11-02T15:10:21.384Z,19.40
2022-11-02T15:12:49.125Z,19.30
2022-11-02T15:15:16.125Z,19.20
2022-11-02T15:17:43.269Z,19.10
2022-11-02T15:20:16.248Z,19.00
2022-11-02T15:22:54.827Z,19.00
2022-11-02T15:25:27.538Z,18.90
2022-11-02T15:28:03.364Z,18.70
2022-11-02T15:30:33.221Z,18.60
2022-11-02T15:33:05.191Z,18.60
2022-11-02T15:35:37.262Z,18.50
2022-11-02T15:38:27.923Z,18.40
2022-11-02T15:41:25.278Z,18.30
2022-11-02T15:44:26.042Z,18.20
2022-11-02T15:47:28.350Z,18.10
2022-11-02T15:50:20.589Z,18.00
2022-11-02T15:53:22.191Z,17.90
2022-11-02T15:56:31.496Z,17.80
2022-11-02T15:59:33.749Z,17.60
2022-11-02T16:02:11.623Z,17.40
2022-11-02T16:04:39.420Z,17.40
2022-11-02T16:07:07.361Z,17.40
2022-11-02T16:09:36.890Z,17.30
2022-11-02T16:12:30.077Z,17.10
2022-11-02T16:14:57.903Z,17.00
2022-11-02T16:17:26.279Z,16.90
2022-11-02T16:20:09.435Z,16.80
2022-11-02T16:22:37.233Z,16.80
2022-11-02T16:25:12.101Z,16.70
2022-11-02T16:27:39.772Z,16.70
2022-11-02T16:30:07.792Z,16.60
2022-11-02T16:32:35.574Z,16.60
2022-11-02T16:35:03.534Z,16.50
2022-11-02T16:37:30.852Z,16.50
2022-11-02T16:39:58.433Z,16.30
2022-11-02T16:42:25.803Z,16.30
2022-11-02T16:45:01.588Z,16.10
2022-11-02T16:47:40.994Z,16.00
2022-11-02T16:50:22.363Z,15.80
2022-11-02T16:52:59.249Z,15.70
2022-11-02T16:55:48.116Z,15.70
2022-11-02T16:58:24.788Z,15.60
2022-11-02T17:01:05.883Z,15.60
2022-11-02T17:03:34.899Z,15.50
2022-11-02T17:06:05.620Z,15.40
2022-11-02T17:08:36.111Z,15.30
2022-11-02T17:11:05.759Z,15.20
2022-11-02T17:13:36.921Z,15.20
2022-11-02T17:16:11.934Z,15.20
2022-11-02T17:18:39.443Z,15.10
2022-11-02T17:21:27.016Z,15.10
2022-11-02T17:23:55.338Z,15.20
2022-11-02T17:26:31.288Z,15.20
2022-11-02T17:29:01.927Z,15.30
2022-11-02T17:31:31.809Z,15.40
2022-11-02T17:34:02.134Z,15.40
2022-11-02T17:36:29.875Z,15.60
2022-11-02T17:39:02.364Z,15.60
2022-11-02T17:41:49.003Z,15.50
2022-11-02T17:44:17.425Z,15.60
2022-11-02T17:46:46.048Z,15.60
2022-11-02T17:49:13.380Z,15.60
2022-11-02T17:51:40.958Z,15.50
2022-11-02T17:54:12.322Z,15.60
2022-11-02T17:56:39.620Z,15.50
2022-11-02T17:59:06.719Z,15.50
2022-11-02T18:01:34.030Z,15.40
2022-11-02T18:04:01.094Z,15.40
2022-11-02T18:06:29.893Z,15.40
2022-11-02T18:09:11.830Z,15.40
2022-11-02T18:11:38.876Z,15.50
2022-11-02T18:14:05.984Z,15.50
2022-11-02T18:16:33.138Z,15.50
2022-11-02T18:19:00.204Z,15.60
2022-11-02T18:21:27.208Z,15.50
2022-11-02T18:23:54.262Z,15.60
2022-11-02T18:26:21.282Z,15.60
2022-11-02T18:28:50.581Z,15.60
2022-11-02T18:31:17.690Z,15.60
2022-11-02T18:33:44.753Z,15.60
2022-11-02T18:36:14.359Z,15.70
2022-11-02T18:38:42.623Z,15.60
2022-11-02T18:41:36.931Z,15.60
2022-11-02T18:44:11.984Z,15.50
2022-11-02T18:46:41.882Z,15.50
2022-11-02T18:49:09.035Z,15.40
2022-11-02T18:51:36.070Z,15.40
2022-11-02T18:54:05.463Z,15.30
2022-11-02T18:56:32.763Z,15.10
2022-11-02T18:58:59.774Z,15.00
2022-11-02T19:01:28.319Z,14.90
2022-11-02T19:03:57.859Z,14.90
2022-11-02T19:06:44.894Z,14.80
2022-11-02T19:09:19.584Z,14.70
2022-11-02T19:12:01.679Z,14.60
2022-11-02T19:14:32.285Z,14.50
2022-11-02T19:16:59.374Z,14.50
2022-11-02T19:19:26.363Z,14.50
2022-11-02T19:21:53.826Z,14.40
2022-11-02T19:24:23.731Z,14.40
2022-11-02T19:26:51.363Z,14.50
2022-11-02T19:29:19.278Z,14.40
2022-11-02T19:31:47.145Z,14.30
2022-11-02T19:34:14.573Z,14.40
2022-11-02T19:36:41.901Z,14.40
2022-11-02T19:39:10.235Z,14.40
2022-11-02T19:41:39.019Z,14.40
2022-11-02T19:44:06.824Z,14.40
2022-11-02T19:46:34.458Z,14.30
2022-11-02T19:49:01.635Z,14.30
2022-11-02T19:51:32.163Z,14.20
2022-11-02T19:54:01.219Z,14.20
2022-11-02T19:56:33.394Z,14.20
2022-11-02T19:59:01.172Z,14.30
2022-11-02T20:01:30.539Z,14.20
2022-11-02T20:03:58.666Z,14.20
2022-11-02T20:06:33.161Z,14.30
2022-11-02T20:09:04.526Z,14.30
2022-11-02T20:11:32.194Z,14.40
2022-11-02T20:14:01.149Z,14.40
2022-11-02T20:16:28.956Z,14.50
2022-11-02T20:18:56.889Z,14.60
2022-11-02T20:21:32.098Z,14.50
2022-11-02T20:24:01.145Z,14.50
2022-11-02T20:26:31.572Z,14.40
2022-11-02T20:29:00.473Z,14.40
2022-11-02T20:31:30.830Z,14.30
2022-11-02T20:33:59.912Z,14.20
2022-11-02T20:36:27.577Z,14.20
2022-11-02T20:38:56.385Z,14.20
2022-11-02T20:41:24.678Z,14.20
2022-11-02T20:43:53.383Z,14.10
2022-11-02T20:46:41.222Z,14.10
2022-11-02T20:49:20.584Z,14.10
2022-11-02T20:51:49.401Z,14.00
2022-11-02T20:54:18.482Z,14.00
2022-11-02T20:56:46.233Z,13.90
2022-11-02T20:59:13.296Z,13.80
2022-11-02T21:01:40.551Z,13.80
2022-11-02T21:04:08.032Z,13.80
2022-11-02T21:06:35.040Z,13.80
2022-11-02T21:09:09.094Z,13.70
2022-11-02T21:11:57.918Z,13.60
2022-11-02T21:14:25.611Z,13.50
2022-11-02T21:16:52.613Z,13.40
2022-11-02T21:19:19.668Z,13.30
2022-11-02T21:21:46.643Z,13.30
2022-11-02T21:24:13.880Z,13.20
2022-11-02T21:26:40.867Z,13.10
2022-11-02T21:29:08.962Z,13.10
2022-11-02T21:31:35.989Z,13.00
2022-11-02T21:34:03.071Z,13.00
2022-11-02T21:36:30.518Z,13.00
2022-11-02T21:38:58.916Z,12.90
2022-11-02T21:41:29.005Z,12.80
2022-11-02T21:43:56.396Z,12.70
2022-11-02T21:46:25.826Z,12.70
2022-11-02T21:48:53.162Z,12.60
2022-11-02T21:51:22.086Z,12.50
2022-11-02T21:53:50.609Z,12.50
2022-11-02T21:56:26.068Z,12.50
2022-11-02T21:58:54.717Z,12.40
2022-11-02T22:01:43.490Z,12.40
2022-11-02T22:04:19.550Z,12.40
2022-11-02T22:06:46.707Z,12.30
2022-11-02T22:09:14.372Z,12.20
2022-11-02T22:11:41.722Z,12.20
2022-11-02T22:14:08.724Z,12.20
2022-11-02T22:16:38.400Z,12.20
2022-11-02T22:19:07.674Z,12.20
2022-11-02T22:21:37.725Z,12.20
2022-11-02T22:24:05.851Z,12.20
2022-11-02T22:26:34.410Z,12.20
2022-11-02T22:29:01.564Z,12.20
2022-11-02T22:31:31.580Z,12.20
2022-11-02T22:34:00.299Z,12.20
2022-11-02T22:36:29.524Z,12.20
2022-11-02T22:38:58.058Z,12.10
2022-11-02T22:41:27.981Z,12.10
2022-11-02T22:44:09.095Z,12.00
2022-11-02T22:46:41.040Z,12.00
2022-11-02T22:49:10.219Z,12.00
2022-11-02T22:51:40.366Z,12.00
2022-11-02T22:54:09.864Z,11.90
2022-11-02T22:56:40.413Z,11.90
2022-11-02T22:59:09.839Z,11.90
2022-11-02T23:01:37.531Z,11.80
2022-11-02T23:04:05.864Z,11.80
2022-11-02T23:06:33.511Z,11.70
2022-11-02T23:09:01.476Z,11.70
2022-11-02T23:11:32.330Z,11.60
2022-11-02T23:14:09.641Z,11.50
2022-11-02T23:16:37.727Z,11.50
2022-11-02T23:19:31.602Z,11.40
2022-11-02T23:22:22.001Z,11.40
2022-11-02T23:25:09.585Z,11.30
2022-11-02T23:28:02.297Z,11.30
2022-11-02T23:30:52.281Z,11.30
2022-11-02T23:33:20.213Z,11.30
2022-11-02T23:36:05.617Z,11.20
2022-11-02T23:38:51.383Z,11.20
2022-11-02T23:41:19.449Z,11.20
2022-11-02T23:43:46.764Z,11.20
2022-11-02T23:46:16.231Z,11.20
2022-11-02T23:48:45.903Z,11.20
2022-11-02T23:51:34.107Z,11.20
2022-11-02T23:54:19.647Z,11.20
2022-11-02T23:56:46.816Z,11.30
2022-11-02T23:59:18.161Z,11.20
